sensor_id;sensor_type;location;lat;lon;timestamp;P1;durP1;ratioP1;P2;durP2;ratioP2
20988;SDS011;10653;47.052;15.410;2023-05-07T00:00:32;8.70;;;7.97;;
20988;SDS011;10653;47.052;15.410;2023-05-07T00:02:59;9.00;;;8.17;;
20988;SDS011;10653;47.052;15.410;2023-05-07T00:05:25;9.50;;;8.60;;
20988;SDS011;10653;47.052;15.410;2023-05-07T00:07:51;9.83;;;7.67;;
20988;SDS011;10653;47.052;15.410;2023-05-07T00:10:20;9.27;;;8.30;;
20988;SDS011;10653;47.052;15.410;2023-05-07T00:12:46;9.30;;;8.40;;
20988;SDS011;10653;47.052;15.410;2023-05-07T00:15:12;8.47;;;7.57;;
20988;SDS011;10653;47.052;15.410;2023-05-07T00:17:38;9.07;;;8.20;;
20988;SDS011;10653;47.052;15.410;2023-05-07T00:20:04;9.70;;;8.67;;
20988;SDS011;10653;47.052;15.410;2023-05-07T00:22:31;9.10;;;8.30;;
20988;SDS011;10653;47.052;15.410;2023-05-07T00:24:57;10.63;;;9.63;;
20988;SDS011;10653;47.052;15.410;2023-05-07T00:27:24;9.90;;;9.00;;
20988;SDS011;10653;47.052;15.410;2023-05-07T00:29:50;9.33;;;8.43;;
20988;SDS011;10653;47.052;15.410;2023-05-07T00:32:16;9.57;;;8.57;;
20988;SDS011;10653;47.052;15.410;2023-05-07T00:34:42;8.57;;;7.80;;
20988;SDS011;10653;47.052;15.410;2023-05-07T00:37:08;8.90;;;8.10;;
20988;SDS011;10653;47.052;15.410;2023-05-07T00:39:35;9.00;;;8.20;;
20988;SDS011;10653;47.052;15.410;2023-05-07T00:42:01;9.03;;;8.30;;
20988;SDS011;10653;47.052;15.410;2023-05-07T00:44:27;8.70;;;7.90;;
20988;SDS011;10653;47.052;15.410;2023-05-07T00:46:54;8.17;;;7.37;;
20988;SDS011;10653;47.052;15.410;2023-05-07T00:49:21;10.87;;;9.17;;
20988;SDS011;10653;47.052;15.410;2023-05-07T00:51:47;8.40;;;7.60;;
20988;SDS011;10653;47.052;15.410;2023-05-07T00:54:13;7.87;;;7.27;;
20988;SDS011;10653;47.052;15.410;2023-05-07T00:56:39;8.33;;;7.63;;
20988;SDS011;10653;47.052;15.410;2023-05-07T00:59:05;8.57;;;7.73;;
20988;SDS011;10653;47.052;15.410;2023-05-07T01:01:32;8.23;;;7.53;;
20988;SDS011;10653;47.052;15.410;2023-05-07T01:03:58;7.77;;;6.93;;
20988;SDS011;10653;47.052;15.410;2023-05-07T01:06:24;10.43;;;7.43;;
20988;SDS011;10653;47.052;15.410;2023-05-07T01:08:52;8.63;;;7.70;;
20988;SDS011;10653;47.052;15.410;2023-05-07T01:11:21;9.80;;;8.90;;
20988;SDS011;10653;47.052;15.410;2023-05-07T01:13:47;8.10;;;7.33;;
20988;SDS011;10653;47.052;15.410;2023-05-07T01:16:15;7.47;;;6.20;;
20988;SDS011;10653;47.052;15.410;2023-05-07T01:18:41;7.30;;;6.70;;
20988;SDS011;10653;47.052;15.410;2023-05-07T01:21:07;6.43;;;5.83;;
20988;SDS011;10653;47.052;15.410;2023-05-07T01:23:36;7.30;;;6.63;;
20988;SDS011;10653;47.052;15.410;2023-05-07T01:26:02;6.23;;;5.73;;
20988;SDS011;10653;47.052;15.410;2023-05-07T01:28:28;8.07;;;7.30;;
20988;SDS011;10653;47.052;15.410;2023-05-07T01:30:54;6.47;;;5.93;;
20988;SDS011;10653;47.052;15.410;2023-05-07T01:33:22;5.60;;;5.10;;
20988;SDS011;10653;47.052;15.410;2023-05-07T01:35:53;6.03;;;5.43;;
20988;SDS011;10653;47.052;15.410;2023-05-07T01:38:19;5.13;;;4.50;;
20988;SDS011;10653;47.052;15.410;2023-05-07T01:40:46;5.33;;;4.80;;
20988;SDS011;10653;47.052;15.410;2023-05-07T01:43:12;5.43;;;4.93;;
20988;SDS011;10653;47.052;15.410;2023-05-07T01:45:39;4.87;;;4.47;;
20988;SDS011;10653;47.052;15.410;2023-05-07T01:48:05;5.30;;;3.90;;
20988;SDS011;10653;47.052;15.410;2023-05-07T01:50:32;4.50;;;4.10;;
20988;SDS011;10653;47.052;15.410;2023-05-07T01:52:59;5.90;;;3.70;;
20988;SDS011;10653;47.052;15.410;2023-05-07T01:55:27;4.53;;;3.77;;
20988;SDS011;10653;47.052;15.410;2023-05-07T01:57:53;4.00;;;3.60;;
20988;SDS011;10653;47.052;15.410;2023-05-07T02:00:19;4.23;;;3.83;;
20988;SDS011;10653;47.052;15.410;2023-05-07T02:02:45;4.27;;;3.97;;
20988;SDS011;10653;47.052;15.410;2023-05-07T02:05:11;3.70;;;3.40;;
20988;SDS011;10653;47.052;15.410;2023-05-07T02:07:37;3.27;;;2.97;;
20988;SDS011;10653;47.052;15.410;2023-05-07T02:10:03;4.20;;;3.50;;
20988;SDS011;10653;47.052;15.410;2023-05-07T02:12:30;3.87;;;3.53;;
20988;SDS011;10653;47.052;15.410;2023-05-07T02:14:56;3.73;;;3.43;;
20988;SDS011;10653;47.052;15.410;2023-05-07T02:17:21;4.03;;;3.70;;
20988;SDS011;10653;47.052;15.410;2023-05-07T02:19:47;3.63;;;3.33;;
20988;SDS011;10653;47.052;15.410;2023-05-07T02:22:13;6.40;;;4.07;;
20988;SDS011;10653;47.052;15.410;2023-05-07T02:24:40;4.77;;;4.33;;
20988;SDS011;10653;47.052;15.410;2023-05-07T02:27:06;5.70;;;4.17;;
20988;SDS011;10653;47.052;15.410;2023-05-07T02:29:32;4.97;;;4.57;;
20988;SDS011;10653;47.052;15.410;2023-05-07T02:31:58;5.03;;;4.63;;
20988;SDS011;10653;47.052;15.410;2023-05-07T02:34:24;4.73;;;4.33;;
20988;SDS011;10653;47.052;15.410;2023-05-07T02:36:50;6.03;;;5.17;;
20988;SDS011;10653;47.052;15.410;2023-05-07T02:39:16;6.60;;;5.87;;
20988;SDS011;10653;47.052;15.410;2023-05-07T02:41:42;5.90;;;5.40;;
20988;SDS011;10653;47.052;15.410;2023-05-07T02:44:08;6.20;;;5.63;;
20988;SDS011;10653;47.052;15.410;2023-05-07T02:46:34;6.47;;;5.87;;
20988;SDS011;10653;47.052;15.410;2023-05-07T02:49:00;6.20;;;5.63;;
20988;SDS011;10653;47.052;15.410;2023-05-07T02:51:26;6.60;;;6.00;;
20988;SDS011;10653;47.052;15.410;2023-05-07T02:53:52;5.87;;;5.37;;
20988;SDS011;10653;47.052;15.410;2023-05-07T02:56:18;7.00;;;6.27;;
20988;SDS011;10653;47.052;15.410;2023-05-07T02:58:44;7.60;;;6.90;;
20988;SDS011;10653;47.052;15.410;2023-05-07T03:01:10;7.70;;;7.00;;
20988;SDS011;10653;47.052;15.410;2023-05-07T03:03:38;8.80;;;8.10;;
20988;SDS011;10653;47.052;15.410;2023-05-07T03:06:04;9.30;;;8.43;;
20988;SDS011;10653;47.052;15.410;2023-05-07T03:08:31;8.17;;;7.37;;
20988;SDS011;10653;47.052;15.410;2023-05-07T03:10:57;9.17;;;8.30;;
20988;SDS011;10653;47.052;15.410;2023-05-07T03:13:23;8.47;;;7.47;;
20988;SDS011;10653;47.052;15.410;2023-05-07T03:15:49;11.13;;;7.60;;
20988;SDS011;10653;47.052;15.410;2023-05-07T03:18:15;7.90;;;7.20;;
20988;SDS011;10653;47.052;15.410;2023-05-07T03:20:41;8.50;;;7.70;;
20988;SDS011;10653;47.052;15.410;2023-05-07T03:23:07;7.67;;;7.00;;
20988;SDS011;10653;47.052;15.410;2023-05-07T03:25:33;7.60;;;6.90;;
20988;SDS011;10653;47.052;15.410;2023-05-07T03:28:00;7.77;;;7.07;;
20988;SDS011;10653;47.052;15.410;2023-05-07T03:30:26;8.80;;;8.00;;
20988;SDS011;10653;47.052;15.410;2023-05-07T03:32:52;8.13;;;7.43;;
20988;SDS011;10653;47.052;15.410;2023-05-07T03:35:18;8.13;;;7.33;;
20988;SDS011;10653;47.052;15.410;2023-05-07T03:37:44;9.17;;;8.37;;
20988;SDS011;10653;47.052;15.410;2023-05-07T03:40:10;7.80;;;7.10;;
20988;SDS011;10653;47.052;15.410;2023-05-07T03:42:37;7.43;;;6.57;;
20988;SDS011;10653;47.052;15.410;2023-05-07T03:45:03;8.17;;;6.90;;
20988;SDS011;10653;47.052;15.410;2023-05-07T03:47:29;7.53;;;6.80;;
20988;SDS011;10653;47.052;15.410;2023-05-07T03:49:55;8.10;;;7.33;;
20988;SDS011;10653;47.052;15.410;2023-05-07T03:52:21;8.67;;;7.73;;
20988;SDS011;10653;47.052;15.410;2023-05-07T03:54:51;8.83;;;8.00;;
20988;SDS011;10653;47.052;15.410;2023-05-07T03:57:16;9.90;;;8.90;;
20988;SDS011;10653;47.052;15.410;2023-05-07T03:59:42;9.60;;;8.70;;
20988;SDS011;10653;47.052;15.410;2023-05-07T04:02:08;10.07;;;7.83;;
20988;SDS011;10653;47.052;15.410;2023-05-07T04:04:34;8.83;;;7.93;;
20988;SDS011;10653;47.052;15.410;2023-05-07T04:07:00;8.50;;;7.60;;
20988;SDS011;10653;47.052;15.410;2023-05-07T04:09:26;9.60;;;7.53;;
20988;SDS011;10653;47.052;15.410;2023-05-07T04:11:52;8.30;;;7.50;;
20988;SDS011;10653;47.052;15.410;2023-05-07T04:14:18;7.73;;;7.03;;
20988;SDS011;10653;47.052;15.410;2023-05-07T04:16:45;7.67;;;6.97;;
20988;SDS011;10653;47.052;15.410;2023-05-07T04:19:11;8.33;;;7.60;;
20988;SDS011;10653;47.052;15.410;2023-05-07T04:21:37;8.97;;;7.77;;
20988;SDS011;10653;47.052;15.410;2023-05-07T04:24:03;7.63;;;6.93;;
20988;SDS011;10653;47.052;15.410;2023-05-07T04:26:29;8.00;;;7.30;;
20988;SDS011;10653;47.052;15.410;2023-05-07T04:28:55;7.90;;;7.10;;
20988;SDS011;10653;47.052;15.410;2023-05-07T04:31:22;7.70;;;6.90;;
20988;SDS011;10653;47.052;15.410;2023-05-07T04:33:48;14.20;;;9.27;;
20988;SDS011;10653;47.052;15.410;2023-05-07T04:36:15;8.50;;;7.80;;
20988;SDS011;10653;47.052;15.410;2023-05-07T04:38:41;10.53;;;7.10;;
20988;SDS011;10653;47.052;15.410;2023-05-07T04:41:08;8.70;;;7.87;;
20988;SDS011;10653;47.052;15.410;2023-05-07T04:43:34;9.83;;;8.80;;
20988;SDS011;10653;47.052;15.410;2023-05-07T04:46:00;8.83;;;7.93;;
20988;SDS011;10653;47.052;15.410;2023-05-07T04:48:26;8.07;;;7.33;;
20988;SDS011;10653;47.052;15.410;2023-05-07T04:50:53;8.50;;;7.80;;
20988;SDS011;10653;47.052;15.410;2023-05-07T04:53:19;10.03;;;8.83;;
20988;SDS011;10653;47.052;15.410;2023-05-07T04:55:46;10.87;;;9.90;;
20988;SDS011;10653;47.052;15.410;2023-05-07T04:58:12;9.80;;;8.90;;
20988;SDS011;10653;47.052;15.410;2023-05-07T05:00:38;8.60;;;7.80;;
20988;SDS011;10653;47.052;15.410;2023-05-07T05:03:06;11.00;;;9.83;;
20988;SDS011;10653;47.052;15.410;2023-05-07T05:05:32;8.87;;;8.07;;
20988;SDS011;10653;47.052;15.410;2023-05-07T05:07:58;9.77;;;8.87;;
20988;SDS011;10653;47.052;15.410;2023-05-07T05:10:25;10.07;;;9.17;;
20988;SDS011;10653;47.052;15.410;2023-05-07T05:12:51;9.73;;;8.83;;
20988;SDS011;10653;47.052;15.410;2023-05-07T05:15:17;9.53;;;8.67;;
20988;SDS011;10653;47.052;15.410;2023-05-07T05:17:43;9.23;;;7.80;;
20988;SDS011;10653;47.052;15.410;2023-05-07T05:20:09;9.23;;;8.43;;
20988;SDS011;10653;47.052;15.410;2023-05-07T05:22:36;9.60;;;8.63;;
20988;SDS011;10653;47.052;15.410;2023-05-07T05:25:02;8.20;;;6.67;;
20988;SDS011;10653;47.052;15.410;2023-05-07T05:27:29;9.40;;;8.40;;
20988;SDS011;10653;47.052;15.410;2023-05-07T05:29:55;7.87;;;7.17;;
20988;SDS011;10653;47.052;15.410;2023-05-07T05:32:21;8.60;;;7.70;;
20988;SDS011;10653;47.052;15.410;2023-05-07T05:34:47;8.73;;;7.83;;
20988;SDS011;10653;47.052;15.410;2023-05-07T05:37:13;8.80;;;8.10;;
20988;SDS011;10653;47.052;15.410;2023-05-07T05:39:40;9.00;;;8.10;;
20988;SDS011;10653;47.052;15.410;2023-05-07T05:42:07;8.97;;;8.07;;
20988;SDS011;10653;47.052;15.410;2023-05-07T05:44:33;8.20;;;7.50;;
20988;SDS011;10653;47.052;15.410;2023-05-07T05:46:59;9.40;;;8.53;;
20988;SDS011;10653;47.052;15.410;2023-05-07T05:49:25;9.10;;;8.20;;
20988;SDS011;10653;47.052;15.410;2023-05-07T05:51:51;9.10;;;8.20;;
20988;SDS011;10653;47.052;15.410;2023-05-07T05:54:17;8.93;;;8.10;;
20988;SDS011;10653;47.052;15.410;2023-05-07T05:56:43;7.83;;;7.13;;
20988;SDS011;10653;47.052;15.410;2023-05-07T05:59:09;6.13;;;5.63;;
20988;SDS011;10653;47.052;15.410;2023-05-07T06:01:36;5.40;;;4.90;;
20988;SDS011;10653;47.052;15.410;2023-05-07T06:04:02;5.23;;;4.73;;
20988;SDS011;10653;47.052;15.410;2023-05-07T06:06:28;5.10;;;4.67;;
20988;SDS011;10653;47.052;15.410;2023-05-07T06:08:54;4.50;;;3.90;;
20988;SDS011;10653;47.052;15.410;2023-05-07T06:11:20;4.10;;;3.73;;
20988;SDS011;10653;47.052;15.410;2023-05-07T06:13:46;3.67;;;3.37;;
20988;SDS011;10653;47.052;15.410;2023-05-07T06:16:12;4.53;;;4.13;;
20988;SDS011;10653;47.052;15.410;2023-05-07T06:18:38;4.50;;;3.90;;
20988;SDS011;10653;47.052;15.410;2023-05-07T06:21:04;5.80;;;3.97;;
20988;SDS011;10653;47.052;15.410;2023-05-07T06:23:31;3.80;;;3.50;;
20988;SDS011;10653;47.052;15.410;2023-05-07T06:25:57;4.20;;;3.80;;
20988;SDS011;10653;47.052;15.410;2023-05-07T06:28:23;4.63;;;4.00;;
20988;SDS011;10653;47.052;15.410;2023-05-07T06:30:49;4.57;;;4.10;;
20988;SDS011;10653;47.052;15.410;2023-05-07T06:33:15;4.00;;;3.70;;
20988;SDS011;10653;47.052;15.410;2023-05-07T06:35:42;3.97;;;3.63;;
20988;SDS011;10653;47.052;15.410;2023-05-07T06:38:07;4.67;;;3.70;;
20988;SDS011;10653;47.052;15.410;2023-05-07T06:40:33;3.97;;;3.67;;
20988;SDS011;10653;47.052;15.410;2023-05-07T06:42:59;3.77;;;3.47;;
20988;SDS011;10653;47.052;15.410;2023-05-07T06:45:25;4.27;;;3.87;;
20988;SDS011;10653;47.052;15.410;2023-05-07T06:47:51;4.00;;;3.70;;
20988;SDS011;10653;47.052;15.410;2023-05-07T06:50:17;4.43;;;3.43;;
20988;SDS011;10653;47.052;15.410;2023-05-07T06:52:43;4.70;;;3.50;;
20988;SDS011;10653;47.052;15.410;2023-05-07T06:55:09;3.77;;;3.40;;
20988;SDS011;10653;47.052;15.410;2023-05-07T06:57:36;4.17;;;3.77;;
20988;SDS011;10653;47.052;15.410;2023-05-07T07:00:02;3.83;;;3.43;;
20988;SDS011;10653;47.052;15.410;2023-05-07T07:02:29;4.33;;;3.33;;
20988;SDS011;10653;47.052;15.410;2023-05-07T07:04:55;4.07;;;3.70;;
20988;SDS011;10653;47.052;15.410;2023-05-07T07:07:21;3.90;;;3.60;;
20988;SDS011;10653;47.052;15.410;2023-05-07T07:09:48;4.67;;;3.50;;
20988;SDS011;10653;47.052;15.410;2023-05-07T07:12:16;3.30;;;3.00;;
20988;SDS011;10653;47.052;15.410;2023-05-07T07:14:42;4.60;;;3.10;;
20988;SDS011;10653;47.052;15.410;2023-05-07T07:17:08;3.70;;;3.40;;
20988;SDS011;10653;47.052;15.410;2023-05-07T07:19:34;3.57;;;3.27;;
20988;SDS011;10653;47.052;15.410;2023-05-07T07:22:00;4.53;;;4.13;;
20988;SDS011;10653;47.052;15.410;2023-05-07T07:24:26;4.50;;;4.10;;
20988;SDS011;10653;47.052;15.410;2023-05-07T07:26:52;4.00;;;3.70;;
20988;SDS011;10653;47.052;15.410;2023-05-07T07:29:20;4.00;;;3.60;;
20988;SDS011;10653;47.052;15.410;2023-05-07T07:31:47;4.00;;;3.67;;
20988;SDS011;10653;47.052;15.410;2023-05-07T07:34:14;5.73;;;3.40;;
20988;SDS011;10653;47.052;15.410;2023-05-07T07:36:40;4.80;;;3.57;;
20988;SDS011;10653;47.052;15.410;2023-05-07T07:39:06;4.00;;;3.40;;
20988;SDS011;10653;47.052;15.410;2023-05-07T07:41:32;3.80;;;3.50;;
20988;SDS011;10653;47.052;15.410;2023-05-07T07:43:58;4.00;;;3.70;;
20988;SDS011;10653;47.052;15.410;2023-05-07T07:46:24;4.20;;;3.90;;
20988;SDS011;10653;47.052;15.410;2023-05-07T07:48:51;4.23;;;3.50;;
20988;SDS011;10653;47.052;15.410;2023-05-07T07:51:17;4.20;;;3.80;;
20988;SDS011;10653;47.052;15.410;2023-05-07T07:53:43;3.87;;;3.47;;
20988;SDS011;10653;47.052;15.410;2023-05-07T07:56:09;3.80;;;3.50;;
20988;SDS011;10653;47.052;15.410;2023-05-07T07:58:35;4.57;;;4.17;;
20988;SDS011;10653;47.052;15.410;2023-05-07T08:01:02;3.80;;;3.40;;
20988;SDS011;10653;47.052;15.410;2023-05-07T08:03:28;4.43;;;3.93;;
20988;SDS011;10653;47.052;15.410;2023-05-07T08:05:57;3.80;;;3.37;;
20988;SDS011;10653;47.052;15.410;2023-05-07T08:08:23;5.20;;;4.70;;
20988;SDS011;10653;47.052;15.410;2023-05-07T08:10:49;4.63;;;4.30;;
20988;SDS011;10653;47.052;15.410;2023-05-07T08:13:15;4.20;;;3.80;;
20988;SDS011;10653;47.052;15.410;2023-05-07T08:15:41;6.07;;;4.30;;
20988;SDS011;10653;47.052;15.410;2023-05-07T08:18:07;4.93;;;3.40;;
20988;SDS011;10653;47.052;15.410;2023-05-07T08:20:33;4.63;;;4.23;;
20988;SDS011;10653;47.052;15.410;2023-05-07T08:23:04;4.67;;;4.33;;
20988;SDS011;10653;47.052;15.410;2023-05-07T08:25:32;4.90;;;4.30;;
20988;SDS011;10653;47.052;15.410;2023-05-07T08:27:58;3.77;;;3.47;;
20988;SDS011;10653;47.052;15.410;2023-05-07T08:30:24;4.67;;;4.27;;
20988;SDS011;10653;47.052;15.410;2023-05-07T08:32:51;4.17;;;3.77;;
20988;SDS011;10653;47.052;15.410;2023-05-07T08:35:17;4.43;;;4.03;;
20988;SDS011;10653;47.052;15.410;2023-05-07T08:37:43;4.10;;;3.73;;
20988;SDS011;10653;47.052;15.410;2023-05-07T08:40:09;5.70;;;3.80;;
20988;SDS011;10653;47.052;15.410;2023-05-07T08:42:35;7.50;;;3.83;;
20988;SDS011;10653;47.052;15.410;2023-05-07T08:45:03;5.80;;;4.73;;
20988;SDS011;10653;47.052;15.410;2023-05-07T08:47:39;4.73;;;4.27;;
20988;SDS011;10653;47.052;15.410;2023-05-07T08:50:06;5.63;;;4.00;;
20988;SDS011;10653;47.052;15.410;2023-05-07T08:52:32;4.67;;;4.27;;
20988;SDS011;10653;47.052;15.410;2023-05-07T08:54:58;4.00;;;3.70;;
20988;SDS011;10653;47.052;15.410;2023-05-07T08:57:24;4.30;;;3.90;;
20988;SDS011;10653;47.052;15.410;2023-05-07T08:59:50;4.10;;;3.70;;
20988;SDS011;10653;47.052;15.410;2023-05-07T09:02:16;4.20;;;3.80;;
20988;SDS011;10653;47.052;15.410;2023-05-07T09:04:43;5.30;;;4.43;;
20988;SDS011;10653;47.052;15.410;2023-05-07T09:07:09;4.30;;;3.90;;
20988;SDS011;10653;47.052;15.410;2023-05-07T09:09:35;7.73;;;4.37;;
20988;SDS011;10653;47.052;15.410;2023-05-07T09:12:01;6.10;;;4.63;;
20988;SDS011;10653;47.052;15.410;2023-05-07T09:14:28;4.87;;;4.47;;
20988;SDS011;10653;47.052;15.410;2023-05-07T09:16:57;4.80;;;4.30;;
20988;SDS011;10653;47.052;15.410;2023-05-07T09:19:23;5.87;;;4.63;;
20988;SDS011;10653;47.052;15.410;2023-05-07T09:21:50;6.43;;;4.27;;
20988;SDS011;10653;47.052;15.410;2023-05-07T09:24:23;4.30;;;3.90;;
20988;SDS011;10653;47.052;15.410;2023-05-07T09:26:49;4.40;;;4.10;;
20988;SDS011;10653;47.052;15.410;2023-05-07T09:29:15;4.10;;;3.80;;
20988;SDS011;10653;47.052;15.410;2023-05-07T09:31:42;4.63;;;3.80;;
20988;SDS011;10653;47.052;15.410;2023-05-07T09:34:08;4.33;;;3.93;;
20988;SDS011;10653;47.052;15.410;2023-05-07T09:36:34;3.60;;;3.30;;
20988;SDS011;10653;47.052;15.410;2023-05-07T09:39:00;4.20;;;3.90;;
20988;SDS011;10653;47.052;15.410;2023-05-07T09:41:26;4.97;;;3.30;;
20988;SDS011;10653;47.052;15.410;2023-05-07T09:43:53;4.60;;;4.20;;
20988;SDS011;10653;47.052;15.410;2023-05-07T09:46:19;4.63;;;3.70;;
20988;SDS011;10653;47.052;15.410;2023-05-07T09:48:49;4.33;;;3.40;;
20988;SDS011;10653;47.052;15.410;2023-05-07T09:51:24;4.30;;;3.90;;
20988;SDS011;10653;47.052;15.410;2023-05-07T09:53:52;4.10;;;3.80;;
20988;SDS011;10653;47.052;15.410;2023-05-07T09:56:18;3.93;;;3.63;;
20988;SDS011;10653;47.052;15.410;2023-05-07T09:58:45;4.13;;;3.83;;
20988;SDS011;10653;47.052;15.410;2023-05-07T10:01:12;3.73;;;3.43;;
20988;SDS011;10653;47.052;15.410;2023-05-07T10:03:41;3.90;;;3.60;;
20988;SDS011;10653;47.052;15.410;2023-05-07T10:06:09;3.90;;;3.60;;
20988;SDS011;10653;47.052;15.410;2023-05-07T10:08:36;4.30;;;3.93;;
20988;SDS011;10653;47.052;15.410;2023-05-07T10:11:05;3.70;;;3.40;;
20988;SDS011;10653;47.052;15.410;2023-05-07T10:13:35;4.07;;;3.67;;
20988;SDS011;10653;47.052;15.410;2023-05-07T10:16:03;4.63;;;4.23;;
20988;SDS011;10653;47.052;15.410;2023-05-07T10:18:30;5.10;;;4.50;;
20988;SDS011;10653;47.052;15.410;2023-05-07T10:21:06;3.60;;;3.30;;
20988;SDS011;10653;47.052;15.410;2023-05-07T10:23:33;4.00;;;3.70;;
20988;SDS011;10653;47.052;15.410;2023-05-07T10:26:00;3.13;;;2.83;;
20988;SDS011;10653;47.052;15.410;2023-05-07T10:28:27;3.90;;;3.60;;
20988;SDS011;10653;47.052;15.410;2023-05-07T10:33:26;3.80;;;3.50;;
20988;SDS011;10653;47.052;15.410;2023-05-07T10:35:55;3.73;;;3.43;;
20988;SDS011;10653;47.052;15.410;2023-05-07T10:38:21;4.80;;;3.03;;
20988;SDS011;10653;47.052;15.410;2023-05-07T10:40:47;3.70;;;3.40;;
20988;SDS011;10653;47.052;15.410;2023-05-07T10:43:13;4.17;;;3.80;;
20988;SDS011;10653;47.052;15.410;2023-05-07T10:45:39;3.97;;;3.67;;
20988;SDS011;10653;47.052;15.410;2023-05-07T10:48:06;3.70;;;3.40;;
20988;SDS011;10653;47.052;15.410;2023-05-07T10:50:39;3.43;;;3.13;;
20988;SDS011;10653;47.052;15.410;2023-05-07T10:55:44;4.67;;;4.27;;
20988;SDS011;10653;47.052;15.410;2023-05-07T10:58:26;4.40;;;4.00;;
20988;SDS011;10653;47.052;15.410;2023-05-07T11:01:01;4.20;;;3.80;;
20988;SDS011;10653;47.052;15.410;2023-05-07T11:03:28;4.93;;;3.57;;
20988;SDS011;10653;47.052;15.410;2023-05-07T11:06:13;3.20;;;3.00;;
20988;SDS011;10653;47.052;15.410;2023-05-07T11:11:18;4.80;;;4.50;;
20988;SDS011;10653;47.052;15.410;2023-05-07T11:13:45;3.90;;;3.60;;
20988;SDS011;10653;47.052;15.410;2023-05-07T11:16:20;3.90;;;3.53;;
20988;SDS011;10653;47.052;15.410;2023-05-07T11:18:48;3.80;;;3.50;;
20988;SDS011;10653;47.052;15.410;2023-05-07T11:23:59;3.40;;;3.10;;
20988;SDS011;10653;47.052;15.410;2023-05-07T11:26:26;3.77;;;3.47;;
20988;SDS011;10653;47.052;15.410;2023-05-07T11:28:52;4.00;;;3.70;;
20988;SDS011;10653;47.052;15.410;2023-05-07T11:31:23;4.80;;;3.90;;
20988;SDS011;10653;47.052;15.410;2023-05-07T11:33:49;4.30;;;3.40;;
20988;SDS011;10653;47.052;15.410;2023-05-07T11:36:15;4.07;;;3.70;;
20988;SDS011;10653;47.052;15.410;2023-05-07T11:38:41;4.10;;;3.70;;
20988;SDS011;10653;47.052;15.410;2023-05-07T11:41:07;4.30;;;4.00;;
20988;SDS011;10653;47.052;15.410;2023-05-07T11:43:33;4.67;;;4.27;;
20988;SDS011;10653;47.052;15.410;2023-05-07T11:46:11;3.80;;;3.50;;
20988;SDS011;10653;47.052;15.410;2023-05-07T11:48:39;3.93;;;3.43;;
20988;SDS011;10653;47.052;15.410;2023-05-07T11:51:06;4.43;;;3.50;;
20988;SDS011;10653;47.052;15.410;2023-05-07T11:56:09;5.93;;;5.43;;
20988;SDS011;10653;47.052;15.410;2023-05-07T11:58:36;3.80;;;3.50;;
20988;SDS011;10653;47.052;15.410;2023-05-07T12:01:02;4.77;;;4.27;;
20988;SDS011;10653;47.052;15.410;2023-05-07T12:03:28;3.63;;;3.33;;
20988;SDS011;10653;47.052;15.410;2023-05-07T12:05:54;4.37;;;3.97;;
20988;SDS011;10653;47.052;15.410;2023-05-07T12:08:21;3.97;;;3.67;;
20988;SDS011;10653;47.052;15.410;2023-05-07T12:10:48;5.17;;;4.57;;
20988;SDS011;10653;47.052;15.410;2023-05-07T12:13:15;4.63;;;4.23;;
20988;SDS011;10653;47.052;15.410;2023-05-07T12:15:41;4.87;;;4.40;;
20988;SDS011;10653;47.052;15.410;2023-05-07T12:18:08;3.77;;;3.53;;
20988;SDS011;10653;47.052;15.410;2023-05-07T12:20:35;4.57;;;4.17;;
20988;SDS011;10653;47.052;15.410;2023-05-07T12:23:01;3.70;;;3.40;;
20988;SDS011;10653;47.052;15.410;2023-05-07T12:25:30;4.00;;;3.70;;
20988;SDS011;10653;47.052;15.410;2023-05-07T12:27:56;4.07;;;3.67;;
20988;SDS011;10653;47.052;15.410;2023-05-07T12:30:24;3.80;;;3.20;;
20988;SDS011;10653;47.052;15.410;2023-05-07T12:32:53;3.60;;;3.27;;
20988;SDS011;10653;47.052;15.410;2023-05-07T12:35:26;3.63;;;3.33;;
20988;SDS011;10653;47.052;15.410;2023-05-07T12:37:55;3.83;;;3.53;;
20988;SDS011;10653;47.052;15.410;2023-05-07T12:40:24;4.43;;;4.03;;
20988;SDS011;10653;47.052;15.410;2023-05-07T12:42:52;4.97;;;4.57;;
20988;SDS011;10653;47.052;15.410;2023-05-07T12:45:21;3.30;;;3.10;;
20988;SDS011;10653;47.052;15.410;2023-05-07T12:47:47;3.07;;;2.87;;
20988;SDS011;10653;47.052;15.410;2023-05-07T12:50:13;3.50;;;3.20;;
20988;SDS011;10653;47.052;15.410;2023-05-07T12:52:40;4.70;;;4.30;;
20988;SDS011;10653;47.052;15.410;2023-05-07T12:55:06;3.93;;;3.63;;
20988;SDS011;10653;47.052;15.410;2023-05-07T12:57:39;3.63;;;3.33;;
20988;SDS011;10653;47.052;15.410;2023-05-07T13:00:05;3.90;;;3.50;;
20988;SDS011;10653;47.052;15.410;2023-05-07T13:02:41;3.50;;;3.20;;
20988;SDS011;10653;47.052;15.410;2023-05-07T13:05:09;4.13;;;3.73;;
20988;SDS011;10653;47.052;15.410;2023-05-07T13:07:35;3.43;;;3.10;;
20988;SDS011;10653;47.052;15.410;2023-05-07T13:10:02;3.77;;;3.47;;
20988;SDS011;10653;47.052;15.410;2023-05-07T13:12:28;4.17;;;3.87;;
20988;SDS011;10653;47.052;15.410;2023-05-07T13:14:54;7.00;;;4.80;;
20988;SDS011;10653;47.052;15.410;2023-05-07T13:17:20;4.30;;;3.87;;
20988;SDS011;10653;47.052;15.410;2023-05-07T13:19:46;4.90;;;3.03;;
20988;SDS011;10653;47.052;15.410;2023-05-07T13:22:12;5.33;;;3.67;;
20988;SDS011;10653;47.052;15.410;2023-05-07T13:24:38;7.57;;;3.40;;
20988;SDS011;10653;47.052;15.410;2023-05-07T13:27:06;6.53;;;3.37;;
20988;SDS011;10653;47.052;15.410;2023-05-07T13:29:32;5.50;;;2.80;;
20988;SDS011;10653;47.052;15.410;2023-05-07T13:31:58;2.37;;;1.80;;
20988;SDS011;10653;47.052;15.410;2023-05-07T13:34:24;1.60;;;1.50;;
20988;SDS011;10653;47.052;15.410;2023-05-07T13:36:50;2.33;;;1.60;;
20988;SDS011;10653;47.052;15.410;2023-05-07T13:39:17;1.80;;;1.70;;
20988;SDS011;10653;47.052;15.410;2023-05-07T13:41:43;2.30;;;2.10;;
20988;SDS011;10653;47.052;15.410;2023-05-07T13:44:09;7.07;;;2.40;;
20988;SDS011;10653;47.052;15.410;2023-05-07T13:46:35;3.73;;;2.30;;
20988;SDS011;10653;47.052;15.410;2023-05-07T13:49:01;3.17;;;2.20;;
20988;SDS011;10653;47.052;15.410;2023-05-07T13:51:27;3.67;;;2.03;;
20988;SDS011;10653;47.052;15.410;2023-05-07T13:53:53;3.20;;;2.90;;
20988;SDS011;10653;47.052;15.410;2023-05-07T13:56:19;4.80;;;3.40;;
20988;SDS011;10653;47.052;15.410;2023-05-07T13:58:46;7.63;;;6.93;;
20988;SDS011;10653;47.052;15.410;2023-05-07T14:01:12;9.00;;;8.20;;
20988;SDS011;10653;47.052;15.410;2023-05-07T14:03:38;10.70;;;7.97;;
20988;SDS011;10653;47.052;15.410;2023-05-07T14:06:04;13.10;;;9.87;;
20988;SDS011;10653;47.052;15.410;2023-05-07T14:08:31;10.40;;;9.40;;
20988;SDS011;10653;47.052;15.410;2023-05-07T14:10:57;11.60;;;10.40;;
20988;SDS011;10653;47.052;15.410;2023-05-07T14:13:23;10.97;;;10.07;;
20988;SDS011;10653;47.052;15.410;2023-05-07T14:15:49;11.00;;;9.93;;
20988;SDS011;10653;47.052;15.410;2023-05-07T14:18:15;10.77;;;9.87;;
20988;SDS011;10653;47.052;15.410;2023-05-07T14:20:41;9.90;;;9.10;;
20988;SDS011;10653;47.052;15.410;2023-05-07T14:23:12;11.87;;;10.73;;
20988;SDS011;10653;47.052;15.410;2023-05-07T14:25:38;10.87;;;9.77;;
20988;SDS011;10653;47.052;15.410;2023-05-07T14:28:04;12.33;;;11.00;;
20988;SDS011;10653;47.052;15.410;2023-05-07T14:30:30;12.40;;;11.20;;
20988;SDS011;10653;47.052;15.410;2023-05-07T14:32:56;11.53;;;10.40;;
20988;SDS011;10653;47.052;15.410;2023-05-07T14:35:22;11.00;;;10.00;;
20988;SDS011;10653;47.052;15.410;2023-05-07T14:37:48;10.53;;;9.63;;
20988;SDS011;10653;47.052;15.410;2023-05-07T14:40:14;11.33;;;10.33;;
20988;SDS011;10653;47.052;15.410;2023-05-07T14:42:40;11.20;;;10.20;;